Calumet — WDE3568 — position and weather

sailwx.info

Track history (hours):
 
Tides and Currents Weather Stations Pressure Air Temp Water Temp Dewpoint Dewpoint Depression Visibility Wind Speed Wind Dir Waves Ship Positions

Calumet

Owner: Grand River Navigation Company, Traverse City, MI. More information available from US FCC via Universal Licensing System and Coast Guard Vessel Documentation Center.

Last reported at 2016-May-27 21:00 UTC. Time now 2016-May-28 00:03 UTC.
Position N 41°42' W 082°12'.

Length 192 m; draft 6.8 m.

Type: Cargo ship. MMSI: 367132630.

Wind from 070 at 11 knots

Barometer 1017.6 mb
Air temperature 21.1 ° C

Date/timePositionNaut miles runAvg speedWind from/ knotsBaromVisibWave heightAir tempDewpointWater temp
2016-May-27 21:00N 41°42' W 082°12'   070 / 111017.6 21.1
2016-May-25 11:00N 45°18' W 083°18'2412.1 300 / 71017.6 0.1 9.9
2016-May-25 09:00N 45°30' W 083°48'2114.2 290 / 71017.6 0.1 9.9
2016-May-25 07:33N 45°40' W 084°14'1212.1
2016-May-25 06:33N 45°43' W 084°30'1212.2
2016-May-25 05:33N 45°49' W 084°46'1212.4
2016-May-25 04:33N 45°50' W 085°03'10 9.8
2016-May-25 03:33N 45°42' W 085°13'713.0
2016-May-25 03:00N 45°36' W 085°18'511.9 210 / 11015.5
2016-May-25 02:33N 45°32' W 085°23'1212.3
2016-May-25 01:33N 45°23' W 085°34'1212.2
2016-May-25 00:33N 45°13' W 085°44'1212.3
2016-May-24 23:33N 45°03' W 085°54'15011.9
2016-May-24 11:00N 42°42' W 087°06'3115.6 200 / 131015.9 0.514.4
2016-May-24 09:00N 42°12' W 087°18'19 0.7 200 / 201015.9 0.514.9
2016-May-23 08:00N 42°30' W 087°24'   210 / 111017.6 0.511.1
2016-May-19 21:00N 43°48' W 087°24'2110.5 190 / 111025.0 0.5 7.7
2016-May-19 19:00N 44°00' W 087°00'5012.4 190 / 151026.7 0.5 8.8
2016-May-19 15:00N 44°48' W 086°42'611.5 180 / 121025.3 0.5 8.8
2016-May-19 14:26N 44°54' W 086°38'1011.9
2016-May-19 13:34N 45°03' W 086°31'1212.0
2016-May-19 12:33N 45°14' W 086°24'610.5
2016-May-19 12:00N 45°18' W 086°18'715.9 170 / 101025.3 0.5 7.7
2016-May-19 11:34N 45°25' W 086°17'611.0
2016-May-19 11:00N 45°30' W 086°12'613.6 170 / 111025.3 5.5
2016-May-19 10:33N 45°36' W 086°10'1111.5
2016-May-19 09:34N 45°44' W 085°58'4 6.3
2016-May-19 09:00N 45°42' W 085°54'1125.1 170 / 91026.0 7.7
2016-May-19 08:34N 45°50' W 085°43'1211.7
2016-May-19 07:34N 45°54' W 085°27'1212.0
2016-May-19 06:34N 45°52' W 085°10'1212.1
2016-May-19 05:34N 45°50' W 084°53'1211.9
2016-May-19 04:34N 45°46' W 084°37'1211.8
2016-May-19 03:34N 45°41' W 084°22'1111.3
2016-May-19 02:33N 45°38' W 084°06'6010.8
2016-May-18 21:00N 45°00' W 083°00'4723.6 090 / 101026.0 6.6
2016-May-18 19:00N 44°18' W 082°30'8421.0 060 / 141029.4 0.5 9.4
2016-May-18 15:00N 45°42' W 082°30'15050.0 010 / 9742.6 0.5 8.8
2016-May-18 12:00N 43°12' W 082°24'82 8.2 360 / 121026.0 0.5 8.8
2016-May-18 02:00N 41°54' W 083°00'3812.6 050 / 151024.7 10.5
2016-May-17 23:00N 41°42' W 082°12'   050 / 51024.3 11.1
Track history (hours):
 
Tides and Currents Weather Stations Pressure Air Temp Water Temp Dewpoint Dewpoint Depression Visibility Wind Speed Wind Dir Waves Ship Positions

Calumet

Owner: Grand River Navigation Company, Traverse City, MI. More information available from US FCC via Universal Licensing System and Coast Guard Vessel Documentation Center.

Last reported at 2016-May-27 21:00 UTC. Time now 2016-May-28 00:03 UTC.
Position N 41°42' W 082°12'.

Length 192 m; draft 6.8 m.

Type: Cargo ship. MMSI: 367132630.

Wind from 070 at 11 knots

Barometer 1017.6 mb
Air temperature 21.1 ° C

Date/timePositionNaut miles runAvg speedWind from/ knotsBaromVisibWave heightAir tempDewpointWater temp
2016-May-27 21:00N 41°42' W 082°12'   070 / 111017.6 21.1
2016-May-25 11:00N 45°18' W 083°18'2412.1 300 / 71017.6 0.1 9.9
2016-May-25 09:00N 45°30' W 083°48'2114.2 290 / 71017.6 0.1 9.9
2016-May-25 07:33N 45°40' W 084°14'1212.1
2016-May-25 06:33N 45°43' W 084°30'1212.2
2016-May-25 05:33N 45°49' W 084°46'1212.4
2016-May-25 04:33N 45°50' W 085°03'10 9.8
2016-May-25 03:33N 45°42' W 085°13'713.0
2016-May-25 03:00N 45°36' W 085°18'511.9 210 / 11015.5
2016-May-25 02:33N 45°32' W 085°23'1212.3
2016-May-25 01:33N 45°23' W 085°34'1212.2
2016-May-25 00:33N 45°13' W 085°44'1212.3
2016-May-24 23:33N 45°03' W 085°54'15011.9
2016-May-24 11:00N 42°42' W 087°06'3115.6 200 / 131015.9 0.514.4
2016-May-24 09:00N 42°12' W 087°18'19 0.7 200 / 201015.9 0.514.9
2016-May-23 08:00N 42°30' W 087°24'   210 / 111017.6 0.511.1
2016-May-19 21:00N 43°48' W 087°24'2110.5 190 / 111025.0 0.5 7.7
2016-May-19 19:00N 44°00' W 087°00'5012.4 190 / 151026.7 0.5 8.8
2016-May-19 15:00N 44°48' W 086°42'611.5 180 / 121025.3 0.5 8.8
2016-May-19 14:26N 44°54' W 086°38'1011.9
2016-May-19 13:34N 45°03' W 086°31'1212.0
2016-May-19 12:33N 45°14' W 086°24'610.5
2016-May-19 12:00N 45°18' W 086°18'715.9 170 / 101025.3 0.5 7.7
2016-May-19 11:34N 45°25' W 086°17'611.0
2016-May-19 11:00N 45°30' W 086°12'613.6 170 / 111025.3 5.5
2016-May-19 10:33N 45°36' W 086°10'1111.5
2016-May-19 09:34N 45°44' W 085°58'4 6.3
2016-May-19 09:00N 45°42' W 085°54'1125.1 170 / 91026.0 7.7
2016-May-19 08:34N 45°50' W 085°43'1211.7
2016-May-19 07:34N 45°54' W 085°27'1212.0
2016-May-19 06:34N 45°52' W 085°10'1212.1
2016-May-19 05:34N 45°50' W 084°53'1211.9
2016-May-19 04:34N 45°46' W 084°37'1211.8
2016-May-19 03:34N 45°41' W 084°22'1111.3
2016-May-19 02:33N 45°38' W 084°06'6010.8
2016-May-18 21:00N 45°00' W 083°00'4723.6 090 / 101026.0 6.6
2016-May-18 19:00N 44°18' W 082°30'8421.0 060 / 141029.4 0.5 9.4
2016-May-18 15:00N 45°42' W 082°30'15050.0 010 / 9742.6 0.5 8.8
2016-May-18 12:00N 43°12' W 082°24'82 8.2 360 / 121026.0 0.5 8.8
2016-May-18 02:00N 41°54' W 083°00'3812.6 050 / 151024.7 10.5
2016-May-17 23:00N 41°42' W 082°12'   050 / 51024.3 11.1

Dump ship's entire track history